sensor_id;sensor_type;location;lat;lon;timestamp;pressure;altitude;pressure_sealevel;temperature;humidity
50550;BME280;36505;52.512;13.460;2024-02-04T00:01:40;101192.09;;;8.26;94.71
50550;BME280;36505;52.512;13.460;2024-02-04T00:04:05;101207.41;;;8.27;94.19
50550;BME280;36505;52.512;13.460;2024-02-04T00:06:31;101213.91;;;8.26;94.30
50550;BME280;36505;52.512;13.460;2024-02-04T00:08:56;101210.38;;;8.25;94.25
50550;BME280;36505;52.512;13.460;2024-02-04T00:11:22;101212.91;;;8.20;93.82
50550;BME280;36505;52.512;13.460;2024-02-04T00:13:47;101214.56;;;8.21;93.87
50550;BME280;36505;52.512;13.460;2024-02-04T00:16:13;101227.59;;;8.19;93.14
50550;BME280;36505;52.512;13.460;2024-02-04T00:18:38;101218.56;;;8.19;93.92
50550;BME280;36505;52.512;13.460;2024-02-04T00:21:04;101208.72;;;8.18;94.10
50550;BME280;36505;52.512;13.460;2024-02-04T00:23:29;101207.44;;;8.20;94.24
50550;BME280;36505;52.512;13.460;2024-02-04T00:25:55;101222.75;;;8.21;93.99
50550;BME280;36505;52.512;13.460;2024-02-04T00:28:20;101225.50;;;8.21;94.05
50550;BME280;36505;52.512;13.460;2024-02-04T00:30:46;101205.34;;;8.22;93.24
50550;BME280;36505;52.512;13.460;2024-02-04T00:33:12;101207.44;;;8.20;93.09
50550;BME280;36505;52.512;13.460;2024-02-04T00:35:37;101221.09;;;8.20;93.10
50550;BME280;36505;52.512;13.460;2024-02-04T00:38:02;101222.97;;;8.20;93.23
50550;BME280;36505;52.512;13.460;2024-02-04T00:40:28;101216.69;;;8.19;93.13
50550;BME280;36505;52.512;13.460;2024-02-04T00:42:53;101216.06;;;8.17;92.85
50550;BME280;36505;52.512;13.460;2024-02-04T00:45:19;101204.31;;;8.17;92.70
50550;BME280;36505;52.512;13.460;2024-02-04T00:47:44;101205.59;;;8.14;92.40
50550;BME280;36505;52.512;13.460;2024-02-04T00:50:10;101185.47;;;8.09;92.45
50550;BME280;36505;52.512;13.460;2024-02-04T00:52:35;101191.78;;;8.09;91.98
50550;BME280;36505;52.512;13.460;2024-02-04T00:55:00;101182.97;;;8.07;92.13
50550;BME280;36505;52.512;13.460;2024-02-04T00:57:26;101199.34;;;8.01;91.49
50550;BME280;36505;52.512;13.460;2024-02-04T00:59:51;101210.47;;;7.99;91.75
50550;BME280;36505;52.512;13.460;2024-02-04T01:02:16;101189.56;;;7.86;91.55
50550;BME280;36505;52.512;13.460;2024-02-04T01:04:42;101204.22;;;7.92;91.43
50550;BME280;36505;52.512;13.460;2024-02-04T01:07:07;101206.53;;;7.88;91.19
50550;BME280;36505;52.512;13.460;2024-02-04T01:09:33;101192.50;;;7.85;91.20
50550;BME280;36505;52.512;13.460;2024-02-04T01:11:58;101197.56;;;7.81;91.13
50550;BME280;36505;52.512;13.460;2024-02-04T01:14:23;101201.78;;;7.77;90.95
50550;BME280;36505;52.512;13.460;2024-02-04T01:16:49;101192.13;;;7.75;90.77
50550;BME280;36505;52.512;13.460;2024-02-04T01:19:14;101191.69;;;7.71;90.72
50550;BME280;36505;52.512;13.460;2024-02-04T01:21:40;101186.91;;;7.67;90.68
50550;BME280;36505;52.512;13.460;2024-02-04T01:24:05;101190.06;;;7.64;90.30
50550;BME280;36505;52.512;13.460;2024-02-04T01:26:31;101200.75;;;7.59;90.15
50550;BME280;36505;52.512;13.460;2024-02-04T01:28:56;101206.03;;;7.53;90.55
50550;BME280;36505;52.512;13.460;2024-02-04T01:31:22;101206.47;;;7.50;90.44
50550;BME280;36505;52.512;13.460;2024-02-04T01:33:47;101212.31;;;7.47;90.73
50550;BME280;36505;52.512;13.460;2024-02-04T01:36:12;101210.00;;;7.44;91.13
50550;BME280;36505;52.512;13.460;2024-02-04T01:38:38;101213.56;;;7.45;91.52
50550;BME280;36505;52.512;13.460;2024-02-04T01:41:03;101208.97;;;7.45;91.49
50550;BME280;36505;52.512;13.460;2024-02-04T01:43:29;101190.72;;;7.46;91.78
50550;BME280;36505;52.512;13.460;2024-02-04T01:45:55;101194.28;;;7.46;91.46
50550;BME280;36505;52.512;13.460;2024-02-04T01:48:21;101186.97;;;7.40;91.39
50550;BME280;36505;52.512;13.460;2024-02-04T01:50:47;101192.81;;;7.44;91.43
50550;BME280;36505;52.512;13.460;2024-02-04T01:53:15;101189.69;;;7.40;91.01
50550;BME280;36505;52.512;13.460;2024-02-04T01:55:41;101196.19;;;7.39;91.18
50550;BME280;36505;52.512;13.460;2024-02-04T01:58:06;101199.38;;;7.36;90.80
50550;BME280;36505;52.512;13.460;2024-02-04T02:00:32;101191.59;;;7.33;90.72
50550;BME280;36505;52.512;13.460;2024-02-04T02:02:59;101199.13;;;7.31;90.60
50550;BME280;36505;52.512;13.460;2024-02-04T02:05:26;101199.78;;;7.27;90.63
50550;BME280;36505;52.512;13.460;2024-02-04T02:07:51;101211.72;;;7.26;90.62
50550;BME280;36505;52.512;13.460;2024-02-04T02:10:20;101206.72;;;7.23;90.78
50550;BME280;36505;52.512;13.460;2024-02-04T02:12:59;101218.03;;;7.20;90.85
50550;BME280;36505;52.512;13.460;2024-02-04T02:15:34;101209.22;;;7.18;91.35
50550;BME280;36505;52.512;13.460;2024-02-04T02:18:11;101207.31;;;7.18;90.91
50550;BME280;36505;52.512;13.460;2024-02-04T02:23:30;101176.13;;;7.14;91.17
50550;BME280;36505;52.512;13.460;2024-02-04T02:25:55;101170.03;;;7.12;91.16
50550;BME280;36505;52.512;13.460;2024-02-04T02:28:21;101174.06;;;7.09;91.17
50550;BME280;36505;52.512;13.460;2024-02-04T02:30:46;101171.53;;;7.08;91.06
50550;BME280;36505;52.512;13.460;2024-02-04T02:33:12;101182.44;;;7.08;90.86
50550;BME280;36505;52.512;13.460;2024-02-04T02:35:38;101187.22;;;7.06;90.81
50550;BME280;36505;52.512;13.460;2024-02-04T02:38:25;101186.59;;;7.04;90.82
50550;BME280;36505;52.512;13.460;2024-02-04T02:40:55;101173.41;;;7.01;90.67
50550;BME280;36505;52.512;13.460;2024-02-04T02:43:23;101175.50;;;6.99;91.06
50550;BME280;36505;52.512;13.460;2024-02-04T02:45:49;101187.44;;;6.98;90.83
50550;BME280;36505;52.512;13.460;2024-02-04T02:48:15;101186.19;;;6.94;90.94
50550;BME280;36505;52.512;13.460;2024-02-04T02:50:41;101191.44;;;6.95;91.04
50550;BME280;36505;52.512;13.460;2024-02-04T02:53:06;101192.69;;;6.93;91.17
50550;BME280;36505;52.512;13.460;2024-02-04T02:55:32;101193.72;;;6.92;91.55
50550;BME280;36505;52.512;13.460;2024-02-04T02:57:57;101183.03;;;6.90;91.63
50550;BME280;36505;52.512;13.460;2024-02-04T03:00:22;101186.19;;;6.87;91.83
50550;BME280;36505;52.512;13.460;2024-02-04T03:02:48;101181.16;;;6.91;91.94
50550;BME280;36505;52.512;13.460;2024-02-04T03:05:17;101176.56;;;6.91;92.13
50550;BME280;36505;52.512;13.460;2024-02-04T03:07:42;101171.13;;;6.91;92.24
50550;BME280;36505;52.512;13.460;2024-02-04T03:10:08;101171.53;;;6.95;92.41
50550;BME280;36505;52.512;13.460;2024-02-04T03:12:34;101175.94;;;6.96;92.76
50550;BME280;36505;52.512;13.460;2024-02-04T03:14:59;101184.72;;;6.98;92.72
50550;BME280;36505;52.512;13.460;2024-02-04T03:17:25;101179.72;;;7.01;92.91
50550;BME280;36505;52.512;13.460;2024-02-04T03:19:50;101174.88;;;7.03;93.01
50550;BME280;36505;52.512;13.460;2024-02-04T03:22:20;101170.91;;;7.06;93.25
50550;BME280;36505;52.512;13.460;2024-02-04T03:24:47;101171.53;;;7.08;93.12
50550;BME280;36505;52.512;13.460;2024-02-04T03:27:12;101163.75;;;7.11;93.52
50550;BME280;36505;52.512;13.460;2024-02-04T03:29:38;101155.38;;;7.13;93.37
50550;BME280;36505;52.512;13.460;2024-02-04T03:32:03;101160.44;;;7.16;93.47
50550;BME280;36505;52.512;13.460;2024-02-04T03:34:29;101161.03;;;7.18;93.48
50550;BME280;36505;52.512;13.460;2024-02-04T03:36:54;101156.41;;;7.19;93.48
50550;BME280;36505;52.512;13.460;2024-02-04T03:39:20;101150.56;;;7.22;93.66
50550;BME280;36505;52.512;13.460;2024-02-04T03:41:45;101143.00;;;7.24;93.38
50550;BME280;36505;52.512;13.460;2024-02-04T03:44:10;101146.34;;;7.26;93.21
50550;BME280;36505;52.512;13.460;2024-02-04T03:46:36;101156.00;;;7.28;93.51
50550;BME280;36505;52.512;13.460;2024-02-04T03:49:05;101145.94;;;7.29;93.47
50550;BME280;36505;52.512;13.460;2024-02-04T03:51:30;101149.25;;;7.31;93.23
50550;BME280;36505;52.512;13.460;2024-02-04T03:53:56;101146.34;;;7.32;93.39
50550;BME280;36505;52.512;13.460;2024-02-04T03:56:21;101141.94;;;7.31;93.22
50550;BME280;36505;52.512;13.460;2024-02-04T03:58:46;101147.38;;;7.31;93.21
50550;BME280;36505;52.512;13.460;2024-02-04T04:01:12;101133.56;;;7.33;93.42
50550;BME280;36505;52.512;13.460;2024-02-04T04:03:41;101122.66;;;7.33;93.08
50550;BME280;36505;52.512;13.460;2024-02-04T04:06:07;101136.06;;;7.34;92.81
50550;BME280;36505;52.512;13.460;2024-02-04T04:08:34;101128.94;;;7.33;92.88
50550;BME280;36505;52.512;13.460;2024-02-04T04:10:59;101119.94;;;7.33;92.41
50550;BME280;36505;52.512;13.460;2024-02-04T04:13:24;101122.03;;;7.31;92.18
50550;BME280;36505;52.512;13.460;2024-02-04T04:15:50;101123.31;;;7.28;91.96
50550;BME280;36505;52.512;13.460;2024-02-04T04:18:16;101121.84;;;7.26;91.88
50550;BME280;36505;52.512;13.460;2024-02-04T04:20:41;101117.69;;;7.23;91.57
50550;BME280;36505;52.512;13.460;2024-02-04T04:23:07;101089.19;;;7.12;91.56
50550;BME280;36505;52.512;13.460;2024-02-04T04:25:32;101109.28;;;7.18;91.63
50550;BME280;36505;52.512;13.460;2024-02-04T04:27:58;101096.94;;;7.16;91.51
50550;BME280;36505;52.512;13.460;2024-02-04T04:30:24;101099.25;;;7.12;91.57
50550;BME280;36505;52.512;13.460;2024-02-04T04:32:49;101102.16;;;7.10;91.52
50550;BME280;36505;52.512;13.460;2024-02-04T04:35:15;101086.28;;;7.07;91.81
50550;BME280;36505;52.512;13.460;2024-02-04T04:37:40;101100.09;;;7.06;91.37
50550;BME280;36505;52.512;13.460;2024-02-04T04:40:06;101103.03;;;7.04;91.28
50550;BME280;36505;52.512;13.460;2024-02-04T04:42:31;101105.94;;;7.03;91.47
50550;BME280;36505;52.512;13.460;2024-02-04T04:44:57;101109.97;;;7.00;91.35
50550;BME280;36505;52.512;13.460;2024-02-04T04:47:22;101107.44;;;6.99;91.43
50550;BME280;36505;52.512;13.460;2024-02-04T04:49:48;101101.38;;;6.97;91.34
50550;BME280;36505;52.512;13.460;2024-02-04T04:52:13;101092.59;;;6.95;91.23
50550;BME280;36505;52.512;13.460;2024-02-04T04:54:39;101098.44;;;6.92;91.26
50550;BME280;36505;52.512;13.460;2024-02-04T04:57:05;101089.66;;;6.90;91.30
50550;BME280;36505;52.512;13.460;2024-02-04T04:59:30;101093.44;;;6.89;91.26
50550;BME280;36505;52.512;13.460;2024-02-04T05:01:56;101080.03;;;6.87;91.49
50550;BME280;36505;52.512;13.460;2024-02-04T05:04:21;101076.69;;;6.85;91.56
50550;BME280;36505;52.512;13.460;2024-02-04T05:06:50;101078.34;;;6.86;91.78
50550;BME280;36505;52.512;13.460;2024-02-04T05:09:16;101069.34;;;6.86;91.61
50550;BME280;36505;52.512;13.460;2024-02-04T05:11:41;101058.47;;;6.79;91.51
50550;BME280;36505;52.512;13.460;2024-02-04T05:14:07;101059.50;;;6.85;91.19
50550;BME280;36505;52.512;13.460;2024-02-04T05:16:32;101066.84;;;6.84;91.22
50550;BME280;36505;52.512;13.460;2024-02-04T05:18:58;101063.28;;;6.84;90.94
50550;BME280;36505;52.512;13.460;2024-02-04T05:21:23;101066.22;;;6.82;90.83
50550;BME280;36505;52.512;13.460;2024-02-04T05:23:48;101069.16;;;6.81;90.89
50550;BME280;36505;52.512;13.460;2024-02-04T05:26:17;101065.81;;;6.79;90.80
50550;BME280;36505;52.512;13.460;2024-02-04T05:28:42;101056.59;;;6.73;90.91
50550;BME280;36505;52.512;13.460;2024-02-04T05:31:08;101050.97;;;6.74;91.00
50550;BME280;36505;52.512;13.460;2024-02-04T05:33:33;101043.84;;;6.73;90.88
50550;BME280;36505;52.512;13.460;2024-02-04T05:35:58;101050.31;;;6.72;91.09
50550;BME280;36505;52.512;13.460;2024-02-04T05:38:24;101048.66;;;6.71;91.19
50550;BME280;36505;52.512;13.460;2024-02-04T05:40:49;101034.19;;;6.71;91.04
50550;BME280;36505;52.512;13.460;2024-02-04T05:43:14;101039.84;;;6.69;90.98
50550;BME280;36505;52.512;13.460;2024-02-04T05:45:41;101040.94;;;6.68;91.28
50550;BME280;36505;52.512;13.460;2024-02-04T05:48:07;101042.81;;;6.68;91.27
50550;BME280;36505;52.512;13.460;2024-02-04T05:50:33;101046.56;;;6.67;91.25
50550;BME280;36505;52.512;13.460;2024-02-04T05:52:58;101046.56;;;6.67;91.10
50550;BME280;36505;52.512;13.460;2024-02-04T05:55:23;101052.22;;;6.65;91.13
50550;BME280;36505;52.512;13.460;2024-02-04T05:57:49;101053.25;;;6.64;91.18
50550;BME280;36505;52.512;13.460;2024-02-04T06:00:14;101053.25;;;6.64;90.96
50550;BME280;36505;52.512;13.460;2024-02-04T06:02:40;101057.03;;;6.63;91.26
50550;BME280;36505;52.512;13.460;2024-02-04T06:05:08;101051.78;;;6.62;91.04
50550;BME280;36505;52.512;13.460;2024-02-04T06:07:34;101043.84;;;6.60;91.13
50550;BME280;36505;52.512;13.460;2024-02-04T06:09:59;101050.97;;;6.61;91.05
50550;BME280;36505;52.512;13.460;2024-02-04T06:12:25;101047.41;;;6.61;91.04
50550;BME280;36505;52.512;13.460;2024-02-04T06:14:50;101054.94;;;6.59;90.87
50550;BME280;36505;52.512;13.460;2024-02-04T06:17:16;101062.06;;;6.60;90.88
50550;BME280;36505;52.512;13.460;2024-02-04T06:19:41;101051.19;;;6.60;91.30
50550;BME280;36505;52.512;13.460;2024-02-04T06:22:07;101052.63;;;6.62;91.49
50550;BME280;36505;52.512;13.460;2024-02-04T06:24:32;101066.03;;;6.64;91.43
50550;BME280;36505;52.512;13.460;2024-02-04T06:26:57;101058.69;;;6.64;91.57
50550;BME280;36505;52.512;13.460;2024-02-04T06:29:23;101060.38;;;6.65;91.25
50550;BME280;36505;52.512;13.460;2024-02-04T06:31:48;101059.53;;;6.65;91.31
50550;BME280;36505;52.512;13.460;2024-02-04T06:34:13;101059.16;;;6.61;91.08
50550;BME280;36505;52.512;13.460;2024-02-04T06:36:42;101062.66;;;6.62;90.90
50550;BME280;36505;52.512;13.460;2024-02-04T06:39:09;101063.94;;;6.59;90.88
50550;BME280;36505;52.512;13.460;2024-02-04T06:41:34;101051.78;;;6.55;91.05
50550;BME280;36505;52.512;13.460;2024-02-04T06:44:00;101057.03;;;6.57;91.04
50550;BME280;36505;52.512;13.460;2024-02-04T06:46:26;101057.88;;;6.57;91.11
50550;BME280;36505;52.512;13.460;2024-02-04T06:48:53;101058.91;;;6.56;91.05
50550;BME280;36505;52.512;13.460;2024-02-04T06:51:19;101064.16;;;6.58;91.26
50550;BME280;36505;52.512;13.460;2024-02-04T06:53:45;101069.59;;;6.58;91.46
50550;BME280;36505;52.512;13.460;2024-02-04T06:56:10;101060.38;;;6.59;91.46
50550;BME280;36505;52.512;13.460;2024-02-04T06:58:42;101053.91;;;6.60;91.72
50550;BME280;36505;52.512;13.460;2024-02-04T07:01:08;101058.31;;;6.61;91.95
50550;BME280;36505;52.512;13.460;2024-02-04T07:03:34;101060.19;;;6.60;92.15
50550;BME280;36505;52.512;13.460;2024-02-04T07:05:59;101059.34;;;6.66;92.39
50550;BME280;36505;52.512;13.460;2024-02-04T07:08:25;101060.38;;;6.72;92.91
50550;BME280;36505;52.512;13.460;2024-02-04T07:10:51;101057.63;;;6.79;93.42
50550;BME280;36505;52.512;13.460;2024-02-04T07:13:17;101057.41;;;6.87;93.78
50550;BME280;36505;52.512;13.460;2024-02-04T07:15:42;101054.47;;;6.95;93.97
50550;BME280;36505;52.512;13.460;2024-02-04T07:18:08;101051.50;;;7.03;94.35
50550;BME280;36505;52.512;13.460;2024-02-04T07:20:33;101046.06;;;7.09;94.35
50550;BME280;36505;52.512;13.460;2024-02-04T07:22:59;101035.75;;;7.18;94.78
50550;BME280;36505;52.512;13.460;2024-02-04T07:25:24;101028.59;;;7.24;94.88
50550;BME280;36505;52.512;13.460;2024-02-04T07:27:50;101034.66;;;7.32;94.15
50550;BME280;36505;52.512;13.460;2024-02-04T07:30:15;101033.78;;;7.38;94.36
50550;BME280;36505;52.512;13.460;2024-02-04T07:32:41;101029.59;;;7.42;93.56
50550;BME280;36505;52.512;13.460;2024-02-04T07:35:06;101033.75;;;7.45;93.86
50550;BME280;36505;52.512;13.460;2024-02-04T07:37:34;101033.97;;;7.50;93.30
50550;BME280;36505;52.512;13.460;2024-02-04T07:40:00;101031.63;;;7.53;93.45
50550;BME280;36505;52.512;13.460;2024-02-04T07:42:25;101031.19;;;7.57;92.94
50550;BME280;36505;52.512;13.460;2024-02-04T07:44:50;101020.69;;;7.60;93.38
50550;BME280;36505;52.512;13.460;2024-02-04T07:47:16;101016.06;;;7.61;92.79
50550;BME280;36505;52.512;13.460;2024-02-04T07:49:42;101013.97;;;7.63;92.64
50550;BME280;36505;52.512;13.460;2024-02-04T07:52:07;101010.56;;;7.67;92.92
50550;BME280;36505;52.512;13.460;2024-02-04T07:54:33;100995.91;;;7.68;93.04
50550;BME280;36505;52.512;13.460;2024-02-04T07:56:59;100991.91;;;7.71;92.26
50550;BME280;36505;52.512;13.460;2024-02-04T07:59:24;100995.22;;;7.73;91.90
50550;BME280;36505;52.512;13.460;2024-02-04T08:01:50;101001.31;;;7.75;91.40
50550;BME280;36505;52.512;13.460;2024-02-04T08:04:15;100995.44;;;7.78;92.16
50550;BME280;36505;52.512;13.460;2024-02-04T08:06:41;100994.97;;;7.81;91.67
50550;BME280;36505;52.512;13.460;2024-02-04T08:09:06;101001.63;;;7.85;90.33
50550;BME280;36505;52.512;13.460;2024-02-04T08:11:32;101007.28;;;7.90;90.46
50550;BME280;36505;52.512;13.460;2024-02-04T08:13:57;101008.50;;;7.94;89.85
50550;BME280;36505;52.512;13.460;2024-02-04T08:16:22;100993.16;;;8.00;90.46
50550;BME280;36505;52.512;13.460;2024-02-04T08:18:48;100988.47;;;8.07;91.58
50550;BME280;36505;52.512;13.460;2024-02-04T08:21:13;100986.53;;;8.14;91.35
50550;BME280;36505;52.512;13.460;2024-02-04T08:23:39;100987.31;;;8.21;91.80
50550;BME280;36505;52.512;13.460;2024-02-04T08:26:07;100988.31;;;8.26;92.05
50550;BME280;36505;52.512;13.460;2024-02-04T08:28:32;100987.69;;;8.31;90.00
50550;BME280;36505;52.512;13.460;2024-02-04T08:30:58;100994.56;;;8.33;88.81
50550;BME280;36505;52.512;13.460;2024-02-04T08:33:23;100986.19;;;8.35;88.36
50550;BME280;36505;52.512;13.460;2024-02-04T08:35:49;100987.00;;;8.36;88.53
50550;BME280;36505;52.512;13.460;2024-02-04T08:38:14;100983.00;;;8.38;88.77
50550;BME280;36505;52.512;13.460;2024-02-04T08:40:40;100978.38;;;8.39;89.11
50550;BME280;36505;52.512;13.460;2024-02-04T08:43:05;100962.44;;;8.36;87.88
50550;BME280;36505;52.512;13.460;2024-02-04T08:45:31;100974.19;;;8.36;86.64
50550;BME280;36505;52.512;13.460;2024-02-04T08:47:56;100976.09;;;8.36;85.84
50550;BME280;36505;52.512;13.460;2024-02-04T08:50:21;100978.81;;;8.36;86.62
50550;BME280;36505;52.512;13.460;2024-02-04T08:52:47;100965.19;;;8.36;86.61
50550;BME280;36505;52.512;13.460;2024-02-04T08:55:12;100963.50;;;8.35;86.49
50550;BME280;36505;52.512;13.460;2024-02-04T08:57:38;100967.28;;;8.33;86.56
50550;BME280;36505;52.512;13.460;2024-02-04T09:00:04;100966.44;;;8.33;86.69
50550;BME280;36505;52.512;13.460;2024-02-04T09:02:30;100958.28;;;8.33;86.66
50550;BME280;36505;52.512;13.460;2024-02-04T09:04:55;100960.16;;;8.32;87.33
50550;BME280;36505;52.512;13.460;2024-02-04T09:07:20;100956.38;;;8.33;86.84
50550;BME280;36505;52.512;13.460;2024-02-04T09:09:46;100961.84;;;8.33;86.00
50550;BME280;36505;52.512;13.460;2024-02-04T09:12:11;100958.06;;;8.35;86.76
50550;BME280;36505;52.512;13.460;2024-02-04T09:14:36;100947.34;;;8.33;85.92
50550;BME280;36505;52.512;13.460;2024-02-04T09:17:03;100955.09;;;8.36;86.32
50550;BME280;36505;52.512;13.460;2024-02-04T09:19:29;100956.78;;;8.37;86.04
50550;BME280;36505;52.512;13.460;2024-02-04T09:21:56;100954.88;;;8.38;85.90
50550;BME280;36505;52.512;13.460;2024-02-04T09:24:21;100953.00;;;8.38;86.61
50550;BME280;36505;52.512;13.460;2024-02-04T09:26:47;100956.31;;;8.40;85.34
50550;BME280;36505;52.512;13.460;2024-02-04T09:29:12;100955.66;;;8.45;85.87
50550;BME280;36505;52.512;13.460;2024-02-04T09:31:37;100957.09;;;8.47;85.68
50550;BME280;36505;52.512;13.460;2024-02-04T09:34:03;100960.81;;;8.53;84.89
50550;BME280;36505;52.512;13.460;2024-02-04T09:36:29;100967.72;;;8.55;84.61
50550;BME280;36505;52.512;13.460;2024-02-04T09:38:54;100956.72;;;8.62;85.34
50550;BME280;36505;52.512;13.460;2024-02-04T09:41:21;100951.66;;;8.65;82.80
50550;BME280;36505;52.512;13.460;2024-02-04T09:43:49;100960.63;;;8.73;83.76
50550;BME280;36505;52.512;13.460;2024-02-04T09:46:16;100956.75;;;8.80;85.60
50550;BME280;36505;52.512;13.460;2024-02-04T09:48:44;100948.22;;;8.88;86.41
50550;BME280;36505;52.512;13.460;2024-02-04T09:51:10;100945.19;;;8.96;87.53
50550;BME280;36505;52.512;13.460;2024-02-04T09:53:36;100933.56;;;9.01;87.50
50550;BME280;36505;52.512;13.460;2024-02-04T09:56:05;100942.91;;;9.11;88.73
50550;BME280;36505;52.512;13.460;2024-02-04T09:58:32;100933.78;;;9.18;88.97
50550;BME280;36505;52.512;13.460;2024-02-04T10:00:59;100927.16;;;9.25;89.38
50550;BME280;36505;52.512;13.460;2024-02-04T10:03:25;100922.66;;;9.31;89.62
50550;BME280;36505;52.512;13.460;2024-02-04T10:05:51;100936.84;;;9.39;88.49
50550;BME280;36505;52.512;13.460;2024-02-04T10:08:16;100941.00;;;9.42;88.61
50550;BME280;36505;52.512;13.460;2024-02-04T10:10:42;100926.66;;;9.46;88.85
50550;BME280;36505;52.512;13.460;2024-02-04T10:13:10;100925.34;;;9.49;88.69
50550;BME280;36505;52.512;13.460;2024-02-04T10:15:35;100929.06;;;9.55;88.58
50550;BME280;36505;52.512;13.460;2024-02-04T10:18:08;100928.59;;;9.58;84.09
50550;BME280;36505;52.512;13.460;2024-02-04T10:20:34;100922.19;;;9.64;86.69
50550;BME280;36505;52.512;13.460;2024-02-04T10:23:00;100923.03;;;9.76;88.55
50550;BME280;36505;52.512;13.460;2024-02-04T10:25:25;100904.78;;;9.88;89.42
50550;BME280;36505;52.512;13.460;2024-02-04T10:27:52;100904.16;;;9.98;90.30
50550;BME280;36505;52.512;13.460;2024-02-04T10:30:21;100905.50;;;10.07;90.63
50550;BME280;36505;52.512;13.460;2024-02-04T10:32:50;100894.66;;;10.12;90.23
50550;BME280;36505;52.512;13.460;2024-02-04T10:35:15;100899.66;;;10.15;88.25
50550;BME280;36505;52.512;13.460;2024-02-04T10:37:44;100895.88;;;10.16;84.13
50550;BME280;36505;52.512;13.460;2024-02-04T10:40:10;100892.06;;;10.17;86.17
50550;BME280;36505;52.512;13.460;2024-02-04T10:42:36;100896.47;;;10.18;86.60
50550;BME280;36505;52.512;13.460;2024-02-04T10:45:06;100889.78;;;10.14;83.29
50550;BME280;36505;52.512;13.460;2024-02-04T10:47:37;100891.47;;;10.15;85.74
50550;BME280;36505;52.512;13.460;2024-02-04T10:50:03;100900.13;;;10.12;83.77
50550;BME280;36505;52.512;13.460;2024-02-04T10:52:39;100898.34;;;10.06;79.97
50550;BME280;36505;52.512;13.460;2024-02-04T10:55:08;100902.63;;;10.02;80.56
50550;BME280;36505;52.512;13.460;2024-02-04T10:57:39;100898.13;;;9.96;77.51
50550;BME280;36505;52.512;13.460;2024-02-04T11:00:06;100881.56;;;9.90;76.50
50550;BME280;36505;52.512;13.460;2024-02-04T11:02:37;100885.63;;;9.88;77.12
50550;BME280;36505;52.512;13.460;2024-02-04T11:05:04;100883.13;;;9.86;76.80
50550;BME280;36505;52.512;13.460;2024-02-04T11:07:34;100872.41;;;9.85;77.86
50550;BME280;36505;52.512;13.460;2024-02-04T11:10:00;100876.47;;;9.82;75.93
50550;BME280;36505;52.512;13.460;2024-02-04T11:12:28;100876.31;;;9.77;75.31
50550;BME280;36505;52.512;13.460;2024-02-04T11:14:57;100867.53;;;9.75;77.78
50550;BME280;36505;52.512;13.460;2024-02-04T11:28:12;100854.06;;;9.62;76.23
50550;BME280;36505;52.512;13.460;2024-02-04T11:30:38;100864.19;;;9.62;77.90
50550;BME280;36505;52.512;13.460;2024-02-04T11:33:04;100846.34;;;9.59;78.09
50550;BME280;36505;52.512;13.460;2024-02-04T11:35:33;100845.97;;;9.56;77.92
50550;BME280;36505;52.512;13.460;2024-02-04T11:37:59;100847.50;;;9.51;76.00
50550;BME280;36505;52.512;13.460;2024-02-04T11:40:30;100840.59;;;9.49;75.23
50550;BME280;36505;52.512;13.460;2024-02-04T11:43:11;100841.94;;;9.46;75.98
50550;BME280;36505;52.512;13.460;2024-02-04T11:45:38;100827.03;;;9.42;76.49
50550;BME280;36505;52.512;13.460;2024-02-04T11:48:07;100813.03;;;9.39;76.43
50550;BME280;36505;52.512;13.460;2024-02-04T11:50:32;100800.44;;;9.38;75.96
50550;BME280;36505;52.512;13.460;2024-02-04T11:53:06;100794.34;;;9.36;75.82
50550;BME280;36505;52.512;13.460;2024-02-04T11:55:33;100793.78;;;9.34;75.68
50550;BME280;36505;52.512;13.460;2024-02-04T11:57:59;100794.84;;;9.33;74.42
50550;BME280;36505;52.512;13.460;2024-02-04T12:00:25;100795.06;;;9.31;74.31
50550;BME280;36505;52.512;13.460;2024-02-04T12:03:29;100804.09;;;9.32;73.25
50550;BME280;36505;52.512;13.460;2024-02-04T12:05:55;100794.00;;;9.32;75.31
50550;BME280;36505;52.512;13.460;2024-02-04T12:08:23;100793.28;;;9.37;76.07
50550;BME280;36505;52.512;13.460;2024-02-04T12:10:49;100805.66;;;9.39;75.22
50550;BME280;36505;52.512;13.460;2024-02-04T12:13:15;100817.22;;;9.41;76.41
50550;BME280;36505;52.512;13.460;2024-02-04T12:15:41;100809.81;;;9.42;74.15
50550;BME280;36505;52.512;13.460;2024-02-04T12:18:11;100803.28;;;9.43;74.33
50550;BME280;36505;52.512;13.460;2024-02-04T12:20:37;100813.63;;;9.41;73.58
50550;BME280;36505;52.512;13.460;2024-02-04T12:23:07;100821.84;;;9.41;75.50
50550;BME280;36505;52.512;13.460;2024-02-04T12:25:33;100808.63;;;9.38;73.56
50550;BME280;36505;52.512;13.460;2024-02-04T12:27:59;100811.00;;;9.34;72.95
50550;BME280;36505;52.512;13.460;2024-02-04T12:30:26;100808.13;;;9.29;74.76
50550;BME280;36505;52.512;13.460;2024-02-04T12:33:05;100803.97;;;9.27;74.41
50550;BME280;36505;52.512;13.460;2024-02-04T12:35:31;100801.94;;;9.22;72.98
50550;BME280;36505;52.512;13.460;2024-02-04T12:37:58;100812.50;;;9.19;73.21
50550;BME280;36505;52.512;13.460;2024-02-04T12:40:25;100812.97;;;9.16;74.26
50550;BME280;36505;52.512;13.460;2024-02-04T12:45:19;100809.06;;;9.11;75.64
50550;BME280;36505;52.512;13.460;2024-02-04T12:47:49;100804.66;;;9.10;74.43
50550;BME280;36505;52.512;13.460;2024-02-04T12:50:15;100800.72;;;9.06;74.45
50550;BME280;36505;52.512;13.460;2024-02-04T12:52:41;100800.72;;;9.06;74.74
50550;BME280;36505;52.512;13.460;2024-02-04T12:55:07;100792.75;;;9.05;74.17
50550;BME280;36505;52.512;13.460;2024-02-04T12:57:32;100797.38;;;9.04;74.46
50550;BME280;36505;52.512;13.460;2024-02-04T13:00:07;100794.03;;;9.02;74.83
50550;BME280;36505;52.512;13.460;2024-02-04T13:02:33;100799.72;;;9.01;74.28